sensor_id;sensor_type;location;lat;lon;timestamp;pressure;altitude;pressure_sealevel;temperature;humidity
5609;BME280;2826;51.354;9.588;2024-01-11T00:00:40;99504.97;;;-5.18;66.83
5609;BME280;2826;51.354;9.588;2024-01-11T00:03:06;99501.06;;;-5.11;66.51
5609;BME280;2826;51.354;9.588;2024-01-11T00:05:33;99514.50;;;-5.12;66.45
5609;BME280;2826;51.354;9.588;2024-01-11T00:08:00;99510.22;;;-5.13;66.56
5609;BME280;2826;51.354;9.588;2024-01-11T00:10:26;99510.22;;;-5.13;66.46
5609;BME280;2826;51.354;9.588;2024-01-11T00:12:53;99507.25;;;-5.04;66.38
5609;BME280;2826;51.354;9.588;2024-01-11T00:15:19;99501.41;;;-5.03;66.14
5609;BME280;2826;51.354;9.588;2024-01-11T00:17:47;99489.00;;;-4.97;66.06
5609;BME280;2826;51.354;9.588;2024-01-11T00:20:14;99489.88;;;-4.96;65.62
5609;BME280;2826;51.354;9.588;2024-01-11T00:22:41;99491.59;;;-4.95;65.56
5609;BME280;2826;51.354;9.588;2024-01-11T00:25:08;99494.22;;;-4.94;65.29
5609;BME280;2826;51.354;9.588;2024-01-11T00:27:34;99493.06;;;-5.01;65.43
5609;BME280;2826;51.354;9.588;2024-01-11T00:30:01;99505.78;;;-4.99;65.34
5609;BME280;2826;51.354;9.588;2024-01-11T00:32:28;99502.53;;;-4.96;65.36
5609;BME280;2826;51.354;9.588;2024-01-11T00:34:56;99505.72;;;-5.01;65.30
5609;BME280;2826;51.354;9.588;2024-01-11T00:37:23;99501.53;;;-5.00;65.11
5609;BME280;2826;51.354;9.588;2024-01-11T00:39:50;99495.59;;;-5.01;65.24
5609;BME280;2826;51.354;9.588;2024-01-11T00:42:17;99506.69;;;-4.99;65.21
5609;BME280;2826;51.354;9.588;2024-01-11T00:44:44;99509.97;;;-5.00;65.06
5609;BME280;2826;51.354;9.588;2024-01-11T00:47:11;99495.69;;;-4.99;65.19
5609;BME280;2826;51.354;9.588;2024-01-11T00:49:37;99506.69;;;-4.99;65.06
5609;BME280;2826;51.354;9.588;2024-01-11T00:52:05;99509.56;;;-5.09;65.38
5609;BME280;2826;51.354;9.588;2024-01-11T00:54:32;99505.78;;;-5.19;66.07
5609;BME280;2826;51.354;9.588;2024-01-11T00:56:58;99500.00;;;-5.16;65.84
5609;BME280;2826;51.354;9.588;2024-01-11T00:59:25;99495.84;;;-5.14;65.63
5609;BME280;2826;51.354;9.588;2024-01-11T01:01:52;99487.34;;;-5.16;65.44
5609;BME280;2826;51.354;9.588;2024-01-11T01:04:18;99479.69;;;-5.18;65.33
5609;BME280;2826;51.354;9.588;2024-01-11T01:06:44;99485.47;;;-5.20;65.22
5609;BME280;2826;51.354;9.588;2024-01-11T01:09:13;99482.00;;;-5.22;65.18
5609;BME280;2826;51.354;9.588;2024-01-11T01:11:40;99483.59;;;-5.25;65.07
5609;BME280;2826;51.354;9.588;2024-01-11T01:14:06;99472.34;;;-5.31;65.04
5609;BME280;2826;51.354;9.588;2024-01-11T01:16:33;99470.47;;;-5.35;65.14
5609;BME280;2826;51.354;9.588;2024-01-11T01:19:00;99472.78;;;-5.40;65.22
5609;BME280;2826;51.354;9.588;2024-01-11T01:21:26;99470.97;;;-5.43;64.80
5609;BME280;2826;51.354;9.588;2024-01-11T01:23:53;99472.94;;;-5.55;64.83
5609;BME280;2826;51.354;9.588;2024-01-11T01:26:21;99480.09;;;-5.65;65.13
5609;BME280;2826;51.354;9.588;2024-01-11T01:28:48;99476.28;;;-5.74;65.09
5609;BME280;2826;51.354;9.588;2024-01-11T01:31:14;99471.00;;;-5.79;65.19
5609;BME280;2826;51.354;9.588;2024-01-11T01:33:41;99468.19;;;-5.85;65.35
5609;BME280;2826;51.354;9.588;2024-01-11T01:36:08;99472.09;;;-5.92;65.33
5609;BME280;2826;51.354;9.588;2024-01-11T01:38:35;99475.19;;;-5.98;65.43
5609;BME280;2826;51.354;9.588;2024-01-11T01:41:01;99475.84;;;-6.02;65.42
5609;BME280;2826;51.354;9.588;2024-01-11T01:43:29;99465.47;;;-6.08;65.42
5609;BME280;2826;51.354;9.588;2024-01-11T01:45:56;99468.56;;;-6.14;65.35
5609;BME280;2826;51.354;9.588;2024-01-11T01:48:22;99461.63;;;-6.18;65.49
5609;BME280;2826;51.354;9.588;2024-01-11T01:50:49;99458.16;;;-6.20;65.58
5609;BME280;2826;51.354;9.588;2024-01-11T01:53:17;99471.56;;;-6.21;65.67
5609;BME280;2826;51.354;9.588;2024-01-11T01:55:44;99475.63;;;-6.25;65.72
5609;BME280;2826;51.354;9.588;2024-01-11T01:58:12;99477.13;;;-6.28;65.66
5609;BME280;2826;51.354;9.588;2024-01-11T02:00:40;99481.06;;;-6.34;65.84
5609;BME280;2826;51.354;9.588;2024-01-11T02:03:08;99481.94;;;-6.33;65.81
5609;BME280;2826;51.354;9.588;2024-01-11T02:05:35;99489.22;;;-6.39;66.00
5609;BME280;2826;51.354;9.588;2024-01-11T02:08:03;99484.94;;;-6.40;66.65
5609;BME280;2826;51.354;9.588;2024-01-11T02:10:34;99490.25;;;-6.36;67.52
5609;BME280;2826;51.354;9.588;2024-01-11T02:13:00;99491.31;;;-6.31;67.75
5609;BME280;2826;51.354;9.588;2024-01-11T02:15:27;99491.09;;;-6.35;68.69
5609;BME280;2826;51.354;9.588;2024-01-11T02:17:55;99488.00;;;-6.30;68.61
5609;BME280;2826;51.354;9.588;2024-01-11T02:20:22;99477.34;;;-6.24;68.46
5609;BME280;2826;51.354;9.588;2024-01-11T02:22:52;99471.56;;;-6.21;68.48
5609;BME280;2826;51.354;9.588;2024-01-11T02:25:24;99471.50;;;-6.23;68.59
5609;BME280;2826;51.354;9.588;2024-01-11T02:27:50;99474.97;;;-6.21;68.63
5609;BME280;2826;51.354;9.588;2024-01-11T02:30:17;99477.59;;;-6.19;68.77
5609;BME280;2826;51.354;9.588;2024-01-11T02:32:45;99475.97;;;-6.17;68.76
5609;BME280;2826;51.354;9.588;2024-01-11T02:35:13;99461.78;;;-6.15;68.56
5609;BME280;2826;51.354;9.588;2024-01-11T02:37:40;99471.09;;;-6.14;68.16
5609;BME280;2826;51.354;9.588;2024-01-11T02:40:08;99468.50;;;-6.15;68.22
5609;BME280;2826;51.354;9.588;2024-01-11T02:42:36;99471.09;;;-6.14;68.13
5609;BME280;2826;51.354;9.588;2024-01-11T02:45:03;99482.75;;;-6.16;67.97
5609;BME280;2826;51.354;9.588;2024-01-11T02:47:30;99491.84;;;-6.20;67.86
5609;BME280;2826;51.354;9.588;2024-01-11T02:49:56;99485.78;;;-6.23;68.01
5609;BME280;2826;51.354;9.588;2024-01-11T02:52:23;99471.59;;;-6.38;67.85
5609;BME280;2826;51.354;9.588;2024-01-11T02:54:50;99488.81;;;-6.31;67.84
5609;BME280;2826;51.354;9.588;2024-01-11T02:57:16;99491.97;;;-6.35;67.85
5609;BME280;2826;51.354;9.588;2024-01-11T02:59:44;99484.00;;;-6.43;68.25
5609;BME280;2826;51.354;9.588;2024-01-11T03:02:10;99486.63;;;-6.41;67.99
5609;BME280;2826;51.354;9.588;2024-01-11T03:04:37;99484.00;;;-6.43;68.05
5609;BME280;2826;51.354;9.588;2024-01-11T03:07:04;99487.38;;;-6.42;68.05
5609;BME280;2826;51.354;9.588;2024-01-11T03:09:30;99476.53;;;-6.41;67.83
5609;BME280;2826;51.354;9.588;2024-01-11T03:11:57;99473.19;;;-6.40;67.86
5609;BME280;2826;51.354;9.588;2024-01-11T03:14:24;99473.03;;;-6.43;67.87
5609;BME280;2826;51.354;9.588;2024-01-11T03:16:52;99472.91;;;-6.46;67.80
5609;BME280;2826;51.354;9.588;2024-01-11T03:19:18;99484.72;;;-6.45;67.86
5609;BME280;2826;51.354;9.588;2024-01-11T03:21:45;99491.50;;;-6.44;67.91
5609;BME280;2826;51.354;9.588;2024-01-11T03:24:13;99496.63;;;-6.43;68.29
5609;BME280;2826;51.354;9.588;2024-01-11T03:26:40;99503.34;;;-6.43;68.90
5609;BME280;2826;51.354;9.588;2024-01-11T03:29:07;99498.59;;;-6.37;68.66
5609;BME280;2826;51.354;9.588;2024-01-11T03:31:33;99503.03;;;-6.33;68.55
5609;BME280;2826;51.354;9.588;2024-01-11T03:34:02;99507.28;;;-6.32;68.90
5609;BME280;2826;51.354;9.588;2024-01-11T03:36:28;99496.13;;;-6.35;69.03
5609;BME280;2826;51.354;9.588;2024-01-11T03:38:54;99502.84;;;-6.36;69.67
5609;BME280;2826;51.354;9.588;2024-01-11T03:41:21;99501.25;;;-6.34;69.44
5609;BME280;2826;51.354;9.588;2024-01-11T03:43:47;99494.84;;;-6.27;69.11
5609;BME280;2826;51.354;9.588;2024-01-11T03:46:14;99483.75;;;-6.31;68.89
5609;BME280;2826;51.354;9.588;2024-01-11T03:48:40;99477.81;;;-6.31;68.86
5609;BME280;2826;51.354;9.588;2024-01-11T03:51:08;99488.25;;;-6.41;69.36
5609;BME280;2826;51.354;9.588;2024-01-11T03:53:36;99490.88;;;-6.40;69.58
5609;BME280;2826;51.354;9.588;2024-01-11T03:56:03;99498.38;;;-6.41;69.31
5609;BME280;2826;51.354;9.588;2024-01-11T03:58:30;99488.81;;;-6.47;69.56
5609;BME280;2826;51.354;9.588;2024-01-11T04:00:57;99483.84;;;-6.46;69.38
5609;BME280;2826;51.354;9.588;2024-01-11T04:03:23;99477.97;;;-6.46;69.15
5609;BME280;2826;51.354;9.588;2024-01-11T04:05:50;99472.03;;;-6.47;68.99
5609;BME280;2826;51.354;9.588;2024-01-11T04:08:18;99470.16;;;-6.51;68.87
5609;BME280;2826;51.354;9.588;2024-01-11T04:10:44;99479.75;;;-6.44;68.63
5609;BME280;2826;51.354;9.588;2024-01-11T04:13:11;99482.75;;;-6.51;68.54
5609;BME280;2826;51.354;9.588;2024-01-11T04:15:38;99463.53;;;-6.65;68.91
5609;BME280;2826;51.354;9.588;2024-01-11T04:18:04;99479.63;;;-6.63;68.97
5609;BME280;2826;51.354;9.588;2024-01-11T04:20:31;99495.78;;;-6.76;69.38
5609;BME280;2826;51.354;9.588;2024-01-11T04:22:58;99499.16;;;-6.76;69.52
5609;BME280;2826;51.354;9.588;2024-01-11T04:25:25;99491.59;;;-6.76;69.31
5609;BME280;2826;51.354;9.588;2024-01-11T04:27:52;99488.22;;;-6.76;69.28
5609;BME280;2826;51.354;9.588;2024-01-11T04:30:19;99484.81;;;-6.77;69.22
5609;BME280;2826;51.354;9.588;2024-01-11T04:32:45;99484.66;;;-6.80;69.20
5609;BME280;2826;51.354;9.588;2024-01-11T04:35:12;99493.72;;;-6.84;69.07
5609;BME280;2826;51.354;9.588;2024-01-11T04:37:38;99487.59;;;-6.89;69.15
5609;BME280;2826;51.354;9.588;2024-01-11T04:40:07;99495.06;;;-6.90;69.19
5609;BME280;2826;51.354;9.588;2024-01-11T04:42:35;99497.50;;;-6.92;69.22
5609;BME280;2826;51.354;9.588;2024-01-11T04:45:01;99519.50;;;-6.89;69.25
5609;BME280;2826;51.354;9.588;2024-01-11T04:47:30;99527.22;;;-6.86;69.13
5609;BME280;2826;51.354;9.588;2024-01-11T04:49:57;99526.31;;;-6.88;69.19
5609;BME280;2826;51.354;9.588;2024-01-11T04:52:24;99522.97;;;-6.87;69.15
5609;BME280;2826;51.354;9.588;2024-01-11T04:54:50;99520.22;;;-6.92;69.32
5609;BME280;2826;51.354;9.588;2024-01-11T04:57:17;99517.06;;;-6.88;69.22
5609;BME280;2826;51.354;9.588;2024-01-11T04:59:45;99527.94;;;-6.89;69.27
5609;BME280;2826;51.354;9.588;2024-01-11T05:02:11;99540.25;;;-6.95;70.00
5609;BME280;2826;51.354;9.588;2024-01-11T05:04:38;99546.94;;;-6.96;70.86
5609;BME280;2826;51.354;9.588;2024-01-11T05:07:04;99551.03;;;-6.98;71.41
5609;BME280;2826;51.354;9.588;2024-01-11T05:09:31;99552.91;;;-6.93;71.53
5609;BME280;2826;51.354;9.588;2024-01-11T05:11:57;99514.91;;;-7.13;71.75
5609;BME280;2826;51.354;9.588;2024-01-11T05:14:24;99555.06;;;-6.85;71.70
5609;BME280;2826;51.354;9.588;2024-01-11T05:16:52;99566.66;;;-6.88;72.08
5609;BME280;2826;51.354;9.588;2024-01-11T05:19:19;99555.38;;;-6.78;71.78
5609;BME280;2826;51.354;9.588;2024-01-11T05:21:45;99564.75;;;-6.76;71.56
5609;BME280;2826;51.354;9.588;2024-01-11T05:24:12;99569.72;;;-6.94;72.44
5609;BME280;2826;51.354;9.588;2024-01-11T05:26:38;99571.38;;;-6.78;72.32
5609;BME280;2826;51.354;9.588;2024-01-11T05:29:05;99568.00;;;-6.95;72.85
5609;BME280;2826;51.354;9.588;2024-01-11T05:31:31;99568.31;;;-6.89;73.15
5609;BME280;2826;51.354;9.588;2024-01-11T05:33:59;99565.94;;;-6.86;73.29
5609;BME280;2826;51.354;9.588;2024-01-11T05:36:26;99562.00;;;-6.80;73.05
5609;BME280;2826;51.354;9.588;2024-01-11T05:38:52;99569.88;;;-6.74;72.80
5609;BME280;2826;51.354;9.588;2024-01-11T05:41:19;99558.94;;;-6.75;72.66
5609;BME280;2826;51.354;9.588;2024-01-11T05:43:46;99567.53;;;-6.71;72.90
5609;BME280;2826;51.354;9.588;2024-01-11T05:46:12;99562.78;;;-6.65;72.62
5609;BME280;2826;51.354;9.588;2024-01-11T05:48:39;99543.88;;;-6.57;72.37
5609;BME280;2826;51.354;9.588;2024-01-11T05:51:07;99519.75;;;-6.51;72.11
5609;BME280;2826;51.354;9.588;2024-01-11T05:53:34;99513.97;;;-6.49;71.66
5609;BME280;2826;51.354;9.588;2024-01-11T05:56:01;99497.97;;;-6.49;71.50
5609;BME280;2826;51.354;9.588;2024-01-11T05:58:28;99502.88;;;-6.52;71.40
5609;BME280;2826;51.354;9.588;2024-01-11T06:00:55;99513.69;;;-6.55;71.45
5609;BME280;2826;51.354;9.588;2024-01-11T06:03:21;99510.13;;;-6.59;71.28
5609;BME280;2826;51.354;9.588;2024-01-11T06:05:48;99519.97;;;-6.63;71.39
5609;BME280;2826;51.354;9.588;2024-01-11T06:08:16;99530.97;;;-6.63;71.34
5609;BME280;2826;51.354;9.588;2024-01-11T06:10:42;99540.88;;;-6.66;71.28
5609;BME280;2826;51.354;9.588;2024-01-11T06:13:09;99533.31;;;-6.66;71.27
5609;BME280;2826;51.354;9.588;2024-01-11T06:15:36;99532.38;;;-6.68;71.23
5609;BME280;2826;51.354;9.588;2024-01-11T06:18:03;99544.81;;;-6.71;71.24
5609;BME280;2826;51.354;9.588;2024-01-11T06:20:30;99552.31;;;-6.73;71.15
5609;BME280;2826;51.354;9.588;2024-01-11T06:22:56;99540.56;;;-6.72;70.96
5609;BME280;2826;51.354;9.588;2024-01-11T06:25:24;99547.97;;;-6.75;70.73
5609;BME280;2826;51.354;9.588;2024-01-11T06:27:51;99546.72;;;-6.84;70.63
5609;BME280;2826;51.354;9.588;2024-01-11T06:30:17;99553.34;;;-6.86;70.68
5609;BME280;2826;51.354;9.588;2024-01-11T06:32:44;99567.81;;;-6.98;70.57
5609;BME280;2826;51.354;9.588;2024-01-11T06:35:10;99547.25;;;-7.06;71.31
5609;BME280;2826;51.354;9.588;2024-01-11T06:37:36;99551.81;;;-6.99;71.15
5609;BME280;2826;51.354;9.588;2024-01-11T06:40:04;99556.22;;;-6.95;71.25
5609;BME280;2826;51.354;9.588;2024-01-11T06:42:34;99554.81;;;-6.89;70.89
5609;BME280;2826;51.354;9.588;2024-01-11T06:45:01;99553.41;;;-6.84;71.03
5609;BME280;2826;51.354;9.588;2024-01-11T06:47:28;99561.47;;;-6.75;70.92
5609;BME280;2826;51.354;9.588;2024-01-11T06:49:55;99569.25;;;-6.70;71.01
5609;BME280;2826;51.354;9.588;2024-01-11T06:52:21;99565.28;;;-6.66;71.08
5609;BME280;2826;51.354;9.588;2024-01-11T06:54:48;99566.19;;;-6.64;71.02
5609;BME280;2826;51.354;9.588;2024-01-11T06:57:14;99503.25;;;-6.95;70.81
5609;BME280;2826;51.354;9.588;2024-01-11T06:59:42;99569.19;;;-6.55;70.91
5609;BME280;2826;51.354;9.588;2024-01-11T07:02:09;99558.38;;;-6.52;70.93
5609;BME280;2826;51.354;9.588;2024-01-11T07:04:36;99559.09;;;-6.55;71.00
5609;BME280;2826;51.354;9.588;2024-01-11T07:07:03;99544.84;;;-6.54;70.96
5609;BME280;2826;51.354;9.588;2024-01-11T07:09:30;99557.84;;;-6.47;71.04
5609;BME280;2826;51.354;9.588;2024-01-11T07:11:56;99568.09;;;-6.44;70.78
5609;BME280;2826;51.354;9.588;2024-01-11T07:14:23;99576.53;;;-6.43;70.44
5609;BME280;2826;51.354;9.588;2024-01-11T07:16:51;99575.06;;;-6.39;70.53
5609;BME280;2826;51.354;9.588;2024-01-11T07:19:17;99574.47;;;-6.34;70.53
5609;BME280;2826;51.354;9.588;2024-01-11T07:21:44;99569.75;;;-6.27;70.49
5609;BME280;2826;51.354;9.588;2024-01-11T07:24:11;99564.84;;;-6.24;70.26
5609;BME280;2826;51.354;9.588;2024-01-11T07:26:37;99561.84;;;-6.17;70.10
5609;BME280;2826;51.354;9.588;2024-01-11T07:29:04;99565.63;;;-6.09;69.88
5609;BME280;2826;51.354;9.588;2024-01-11T07:31:30;99559.56;;;-6.12;69.69
5609;BME280;2826;51.354;9.588;2024-01-11T07:33:59;99562.09;;;-6.12;69.73
5609;BME280;2826;51.354;9.588;2024-01-11T07:36:25;99557.97;;;-6.10;69.54
5609;BME280;2826;51.354;9.588;2024-01-11T07:38:52;99552.63;;;-6.17;69.39
5609;BME280;2826;51.354;9.588;2024-01-11T07:41:21;99526.97;;;-6.24;69.27
5609;BME280;2826;51.354;9.588;2024-01-11T07:43:48;99499.16;;;-6.59;69.11
5609;BME280;2826;51.354;9.588;2024-01-11T07:46:14;99553.44;;;-6.34;69.46
5609;BME280;2826;51.354;9.588;2024-01-11T07:48:41;99539.13;;;-6.34;69.82
5609;BME280;2826;51.354;9.588;2024-01-11T07:51:09;99557.84;;;-6.30;69.97
5609;BME280;2826;51.354;9.588;2024-01-11T07:53:35;99561.22;;;-6.30;69.81
5609;BME280;2826;51.354;9.588;2024-01-11T07:56:02;99585.63;;;-6.30;69.65
5609;BME280;2826;51.354;9.588;2024-01-11T07:58:29;99572.91;;;-6.32;69.92
5609;BME280;2826;51.354;9.588;2024-01-11T08:00:55;99569.97;;;-6.23;69.96
5609;BME280;2826;51.354;9.588;2024-01-11T08:03:21;99576.81;;;-6.20;69.72
5609;BME280;2826;51.354;9.588;2024-01-11T08:05:48;99586.22;;;-6.18;69.79
5609;BME280;2826;51.354;9.588;2024-01-11T08:08:17;99572.41;;;-6.24;69.71
5609;BME280;2826;51.354;9.588;2024-01-11T08:10:44;99587.00;;;-6.19;69.97
5609;BME280;2826;51.354;9.588;2024-01-11T08:13:11;99597.28;;;-6.15;69.69
5609;BME280;2826;51.354;9.588;2024-01-11T08:15:38;99588.81;;;-6.16;69.87
5609;BME280;2826;51.354;9.588;2024-01-11T08:18:05;99585.66;;;-6.12;69.95
5609;BME280;2826;51.354;9.588;2024-01-11T08:20:31;99582.50;;;-6.08;69.88
5609;BME280;2826;51.354;9.588;2024-01-11T08:22:58;99582.75;;;-6.03;70.09
5609;BME280;2826;51.354;9.588;2024-01-11T08:25:26;99572.91;;;-5.97;70.00
5609;BME280;2826;51.354;9.588;2024-01-11T08:27:52;99586.53;;;-5.93;70.06
5609;BME280;2826;51.354;9.588;2024-01-11T08:30:19;99583.47;;;-5.87;69.95
5609;BME280;2826;51.354;9.588;2024-01-11T08:32:46;99576.19;;;-5.81;69.97
5609;BME280;2826;51.354;9.588;2024-01-11T08:35:12;99584.06;;;-5.75;69.69
5609;BME280;2826;51.354;9.588;2024-01-11T08:37:39;99585.22;;;-5.68;69.90
5609;BME280;2826;51.354;9.588;2024-01-11T08:40:06;99586.41;;;-5.61;69.89
5609;BME280;2826;51.354;9.588;2024-01-11T08:42:35;99579.34;;;-5.51;69.60
5609;BME280;2826;51.354;9.588;2024-01-11T08:45:04;99582.94;;;-5.45;69.52
5609;BME280;2826;51.354;9.588;2024-01-11T08:47:32;99584.44;;;-5.31;69.18
5609;BME280;2826;51.354;9.588;2024-01-11T08:49:59;99590.66;;;-5.24;69.36
5609;BME280;2826;51.354;9.588;2024-01-11T08:52:26;99590.25;;;-5.15;69.10
5609;BME280;2826;51.354;9.588;2024-01-11T08:54:52;99581.44;;;-5.05;68.96
5609;BME280;2826;51.354;9.588;2024-01-11T08:57:18;99578.38;;;-4.98;68.76
5609;BME280;2826;51.354;9.588;2024-01-11T08:59:46;99585.72;;;-4.85;68.57
5609;BME280;2826;51.354;9.588;2024-01-11T09:02:13;99586.94;;;-4.76;68.64
5609;BME280;2826;51.354;9.588;2024-01-11T09:04:39;99589.06;;;-4.66;68.37
5609;BME280;2826;51.354;9.588;2024-01-11T09:07:06;99596.22;;;-4.57;68.24
5609;BME280;2826;51.354;9.588;2024-01-11T09:09:32;99588.88;;;-4.51;68.19
5609;BME280;2826;51.354;9.588;2024-01-11T09:11:59;99587.56;;;-4.42;68.12
5609;BME280;2826;51.354;9.588;2024-01-11T09:14:26;99591.50;;;-4.29;67.93
5609;BME280;2826;51.354;9.588;2024-01-11T09:16:54;99588.63;;;-4.17;67.59
5609;BME280;2826;51.354;9.588;2024-01-11T09:19:21;99584.69;;;-4.11;67.35
5609;BME280;2826;51.354;9.588;2024-01-11T09:21:47;99601.41;;;-3.95;67.38
5609;BME280;2826;51.354;9.588;2024-01-11T09:24:15;99592.47;;;-3.86;66.97
5609;BME280;2826;51.354;9.588;2024-01-11T09:26:41;99598.75;;;-3.76;66.77
5609;BME280;2826;51.354;9.588;2024-01-11T09:29:08;99599.09;;;-3.69;66.44
5609;BME280;2826;51.354;9.588;2024-01-11T09:31:34;99603.66;;;-3.60;66.18
5609;BME280;2826;51.354;9.588;2024-01-11T09:34:02;99601.41;;;-3.52;66.05
5609;BME280;2826;51.354;9.588;2024-01-11T09:36:29;99593.25;;;-3.45;65.83
5609;BME280;2826;51.354;9.588;2024-01-11T09:38:55;99607.06;;;-3.38;65.33
5609;BME280;2826;51.354;9.588;2024-01-11T09:41:22;99609.78;;;-3.33;64.79
5609;BME280;2826;51.354;9.588;2024-01-11T09:43:51;99615.22;;;-3.24;64.23
5609;BME280;2826;51.354;9.588;2024-01-11T09:46:20;99574.09;;;-3.38;64.23
5609;BME280;2826;51.354;9.588;2024-01-11T09:48:48;99624.25;;;-3.09;63.54
5609;BME280;2826;51.354;9.588;2024-01-11T09:51:16;99614.22;;;-3.06;63.20
5609;BME280;2826;51.354;9.588;2024-01-11T09:53:43;99615.59;;;-2.92;63.07
5609;BME280;2826;51.354;9.588;2024-01-11T09:56:10;99619.38;;;-2.82;62.92
5609;BME280;2826;51.354;9.588;2024-01-11T09:58:38;99616.28;;;-2.73;62.02
5609;BME280;2826;51.354;9.588;2024-01-11T10:01:09;99619.88;;;-2.68;61.40
5609;BME280;2826;51.354;9.588;2024-01-11T10:03:39;99612.50;;;-2.61;61.60
5609;BME280;2826;51.354;9.588;2024-01-11T10:06:06;99605.91;;;-2.56;60.99
5609;BME280;2826;51.354;9.588;2024-01-11T10:08:34;99568.69;;;-2.79;60.82
5609;BME280;2826;51.354;9.588;2024-01-11T10:11:02;99610.84;;;-2.59;60.89
5609;BME280;2826;51.354;9.588;2024-01-11T10:13:30;99590.22;;;-2.69;61.37
5609;BME280;2826;51.354;9.588;2024-01-11T10:16:08;99598.75;;;-2.42;61.04
5609;BME280;2826;51.354;9.588;2024-01-11T10:18:36;99606.72;;;-2.33;61.21
5609;BME280;2826;51.354;9.588;2024-01-11T10:21:03;99612.78;;;-2.29;60.61
5609;BME280;2826;51.354;9.588;2024-01-11T10:23:34;99608.66;;;-2.26;60.58
5609;BME280;2826;51.354;9.588;2024-01-11T10:26:01;99607.38;;;-2.14;60.88
5609;BME280;2826;51.354;9.588;2024-01-11T10:28:28;99600.91;;;-2.04;60.76
5609;BME280;2826;51.354;9.588;2024-01-11T10:30:55;99583.81;;;-2.10;60.61
5609;BME280;2826;51.354;9.588;2024-01-11T10:33:22;99601.56;;;-1.86;60.40
5609;BME280;2826;51.354;9.588;2024-01-11T10:35:49;99589.75;;;-1.84;60.20
5609;BME280;2826;51.354;9.588;2024-01-11T10:38:17;99596.88;;;-1.73;60.75
5609;BME280;2826;51.354;9.588;2024-01-11T10:40:45;99598.34;;;-1.54;60.06
5609;BME280;2826;51.354;9.588;2024-01-11T10:43:15;99594.44;;;-1.44;59.34
5609;BME280;2826;51.354;9.588;2024-01-11T10:45:44;99588.81;;;-1.34;59.13
5609;BME280;2826;51.354;9.588;2024-01-11T10:48:14;99583.94;;;-1.27;58.99
5609;BME280;2826;51.354;9.588;2024-01-11T10:50:42;99579.75;;;-1.25;59.08
5609;BME280;2826;51.354;9.588;2024-01-11T10:53:16;99568.97;;;-1.16;58.85
5609;BME280;2826;51.354;9.588;2024-01-11T10:55:46;99571.84;;;-1.06;58.69
5609;BME280;2826;51.354;9.588;2024-01-11T10:58:15;99573.75;;;-0.98;58.96
5609;BME280;2826;51.354;9.588;2024-01-11T11:00:42;99570.53;;;-0.93;58.76
5609;BME280;2826;51.354;9.588;2024-01-11T11:03:11;99563.00;;;-0.89;58.90
5609;BME280;2826;51.354;9.588;2024-01-11T11:05:38;99549.44;;;-0.88;58.37
5609;BME280;2826;51.354;9.588;2024-01-11T11:08:06;99556.66;;;-0.72;57.93
5609;BME280;2826;51.354;9.588;2024-01-11T11:10:33;99551.78;;;-0.66;57.94
5609;BME280;2826;51.354;9.588;2024-01-11T11:13:02;99544.38;;;-0.56;57.86
5609;BME280;2826;51.354;9.588;2024-01-11T11:15:30;99544.38;;;-0.56;58.12
5609;BME280;2826;51.354;9.588;2024-01-11T11:17:58;99547.19;;;-0.47;57.83
5609;BME280;2826;51.354;9.588;2024-01-11T11:20:26;99539.44;;;-0.50;57.38
5609;BME280;2826;51.354;9.588;2024-01-11T11:23:03;99538.94;;;-0.36;57.52
5609;BME280;2826;51.354;9.588;2024-01-11T11:25:30;99514.38;;;-0.34;56.82
5609;BME280;2826;51.354;9.588;2024-01-11T11:27:57;99525.94;;;-0.15;56.97
5609;BME280;2826;51.354;9.588;2024-01-11T11:30:25;99535.41;;;-0.09;55.99
5609;BME280;2826;51.354;9.588;2024-01-11T11:32:54;99492.28;;;-0.35;55.82
5609;BME280;2826;51.354;9.588;2024-01-11T11:35:22;99529.78;;;0.03;55.20
5609;BME280;2826;51.354;9.588;2024-01-11T11:37:54;99538.25;;;0.03;55.08
5609;BME280;2826;51.354;9.588;2024-01-11T11:40:21;99530.78;;;0.11;55.09
5609;BME280;2826;51.354;9.588;2024-01-11T11:42:48;99540.66;;;0.31;55.08
5609;BME280;2826;51.354;9.588;2024-01-11T11:45:25;99540.91;;;0.42;54.45
5609;BME280;2826;51.354;9.588;2024-01-11T11:47:52;99546.44;;;0.60;54.21
5609;BME280;2826;51.354;9.588;2024-01-11T11:50:22;99549.31;;;0.76;53.65
5609;BME280;2826;51.354;9.588;2024-01-11T11:52:53;99542.66;;;0.83;53.76
5609;BME280;2826;51.354;9.588;2024-01-11T11:55:22;99544.66;;;0.95;53.84
5609;BME280;2826;51.354;9.588;2024-01-11T11:57:48;99539.69;;;1.02;53.43
5609;BME280;2826;51.354;9.588;2024-01-11T12:00:16;99532.91;;;1.04;52.62
5609;BME280;2826;51.354;9.588;2024-01-11T12:02:44;99533.97;;;1.14;52.19
5609;BME280;2826;51.354;9.588;2024-01-11T12:05:11;99545.00;;;1.12;51.74
5609;BME280;2826;51.354;9.588;2024-01-11T12:07:37;99547.72;;;1.21;51.73
5609;BME280;2826;51.354;9.588;2024-01-11T12:10:05;99532.94;;;1.06;51.22
5609;BME280;2826;51.354;9.588;2024-01-11T12:12:32;99534.63;;;1.04;51.60
5609;BME280;2826;51.354;9.588;2024-01-11T12:15:00;99539.63;;;0.99;51.24
5609;BME280;2826;51.354;9.588;2024-01-11T12:17:26;99533.72;;;1.02;51.20
5609;BME280;2826;51.354;9.588;2024-01-11T12:19:54;99522.88;;;1.14;51.26
5609;BME280;2826;51.354;9.588;2024-01-11T12:22:21;99529.09;;;1.25;50.84
5609;BME280;2826;51.354;9.588;2024-01-11T12:24:47;99516.44;;;1.33;50.40
5609;BME280;2826;51.354;9.588;2024-01-11T12:27:14;99520.81;;;1.39;50.15
5609;BME280;2826;51.354;9.588;2024-01-11T12:29:42;99518.56;;;1.56;50.41
5609;BME280;2826;51.354;9.588;2024-01-11T12:32:09;99515.34;;;1.65;49.95
5609;BME280;2826;51.354;9.588;2024-01-11T12:34:36;99510.53;;;1.82;49.96
5609;BME280;2826;51.354;9.588;2024-01-11T12:37:05;99504.75;;;1.94;50.15
5609;BME280;2826;51.354;9.588;2024-01-11T12:39:32;99493.06;;;2.08;49.56
5609;BME280;2826;51.354;9.588;2024-01-11T12:41:58;99493.22;;;2.18;49.91
5609;BME280;2826;51.354;9.588;2024-01-11T12:44:25;99495.00;;;2.22;48.81
5609;BME280;2826;51.354;9.588;2024-01-11T12:46:51;99490.81;;;2.27;48.22
5609;BME280;2826;51.354;9.588;2024-01-11T12:49:18;99489.34;;;2.45;48.35
5609;BME280;2826;51.354;9.588;2024-01-11T12:51:45;99485.91;;;2.43;48.11
5609;BME280;2826;51.354;9.588;2024-01-11T12:54:13;99484.31;;;2.51;47.88
5609;BME280;2826;51.354;9.588;2024-01-11T12:56:43;99480.97;;;2.55;46.35
5609;BME280;2826;51.354;9.588;2024-01-11T12:59:09;99481.03;;;2.61;46.31
5609;BME280;2826;51.354;9.588;2024-01-11T13:01:38;99480.28;;;2.69;46.08
5609;BME280;2826;51.354;9.588;2024-01-11T13:04:05;99463.19;;;2.66;45.28
5609;BME280;2826;51.354;9.588;2024-01-11T13:06:33;99466.41;;;2.53;44.86
5609;BME280;2826;51.354;9.588;2024-01-11T13:09:00;99465.22;;;2.30;45.19
5609;BME280;2826;51.354;9.588;2024-01-11T13:11:29;99455.00;;;2.29;45.20
5609;BME280;2826;51.354;9.588;2024-01-11T13:13:56;99450.00;;;2.38;45.09
5609;BME280;2826;51.354;9.588;2024-01-11T13:16:24;99459.47;;;2.45;44.88
5609;BME280;2826;51.354;9.588;2024-01-11T13:18:51;99451.91;;;2.55;44.44
5609;BME280;2826;51.354;9.588;2024-01-11T13:21:18;99455.31;;;2.51;43.45